createdAt,value
2022-12-22T00:00:49.169Z,52.10
2022-12-22T00:03:16.150Z,51.15
2022-12-22T00:05:43.135Z,49.75
2022-12-22T00:08:10.321Z,52.28
2022-12-22T00:10:37.014Z,50.50
2022-12-22T00:13:04.779Z,51.97
2022-12-22T00:15:34.257Z,49.63
2022-12-22T00:18:01.990Z,52.30
2022-12-22T00:20:28.856Z,52.70
2022-12-22T00:22:55.609Z,51.47
2022-12-22T00:25:22.301Z,50.50
2022-12-22T00:27:48.991Z,50.47
2022-12-22T00:30:17.103Z,50.85
2022-12-22T00:32:44.003Z,49.47
2022-12-22T00:35:14.660Z,47.42
2022-12-22T00:37:41.298Z,45.58
2022-12-22T00:40:20.472Z,46.30
2022-12-22T00:42:47.124Z,46.58
2022-12-22T00:45:13.965Z,46.15
2022-12-22T00:47:42.307Z,44.03
2022-12-22T00:50:09.883Z,42.63
2022-12-22T00:52:37.121Z,42.05
2022-12-22T00:55:12.786Z,41.13
2022-12-22T01:00:18.374Z,35.58
2022-12-22T01:02:45.232Z,35.65
2022-12-22T01:05:12.333Z,39.45
2022-12-22T01:07:39.027Z,36.72
2022-12-22T01:10:11.861Z,34.55
2022-12-22T01:12:40.221Z,35.10
2022-12-22T01:15:16.743Z,33.97
2022-12-22T01:17:43.444Z,34.38
2022-12-22T01:20:10.584Z,36.00
2022-12-22T01:22:37.282Z,35.75
2022-12-22T01:25:14.897Z,33.58
2022-12-22T01:27:41.587Z,32.65
2022-12-22T01:30:09.042Z,32.63
2022-12-22T01:32:35.773Z,32.67
2022-12-22T01:35:02.464Z,32.72
2022-12-22T01:37:29.145Z,33.80
2022-12-22T01:39:55.832Z,31.88
2022-12-22T01:42:23.051Z,31.08
2022-12-22T01:44:49.687Z,31.70
2022-12-22T01:47:28.729Z,34.03
2022-12-22T01:49:55.449Z,36.33
2022-12-22T01:52:27.047Z,37.20
2022-12-22T01:54:55.624Z,36.15
2022-12-22T01:57:22.447Z,34.15
2022-12-22T01:59:49.259Z,33.00
2022-12-22T02:02:17.618Z,35.75
2022-12-22T02:04:47.372Z,32.10
2022-12-22T02:07:34.571Z,31.60
2022-12-22T02:10:19.519Z,29.75
2022-12-22T02:13:09.441Z,28.98
2022-12-22T02:16:01.648Z,29.35
2022-12-22T02:18:48.781Z,28.60
2022-12-22T02:21:20.621Z,29.58
2022-12-22T02:23:56.629Z,29.00
2022-12-22T02:26:28.707Z,32.90
2022-12-22T02:28:56.336Z,31.67
2022-12-22T02:31:23.120Z,31.88
2022-12-22T02:33:49.834Z,32.13
2022-12-22T02:36:41.055Z,29.55
2022-12-22T02:39:24.445Z,28.42
2022-12-22T02:42:18.851Z,30.88
2022-12-22T02:45:27.239Z,28.92
2022-12-22T02:48:09.827Z,28.13
2022-12-22T02:50:54.554Z,31.20
2022-12-22T02:53:23.541Z,30.02
2022-12-22T02:55:50.483Z,32.30
2022-12-22T02:58:17.964Z,30.13
2022-12-22T03:00:44.733Z,28.30
2022-12-22T03:03:11.872Z,28.02
2022-12-22T03:05:38.645Z,26.15
2022-12-22T03:08:08.542Z,24.92
2022-12-22T03:10:35.809Z,27.33
2022-12-22T03:13:02.554Z,29.10
2022-12-22T03:15:29.255Z,26.05
2022-12-22T03:18:04.657Z,27.88
2022-12-22T03:20:31.352Z,25.20
2022-12-22T03:23:06.748Z,23.95
2022-12-22T03:25:33.926Z,25.83
2022-12-22T03:28:05.202Z,24.48
2022-12-22T03:30:32.263Z,23.77
2022-12-22T03:32:59.310Z,23.88
2022-12-22T03:35:26.457Z,26.65
2022-12-22T03:37:53.220Z,27.55
2022-12-22T03:40:19.918Z,27.88
2022-12-22T03:42:46.589Z,28.23
2022-12-22T03:45:13.264Z,27.00
2022-12-22T03:47:39.981Z,25.00
2022-12-22T03:50:07.115Z,27.20
2022-12-22T03:52:33.895Z,27.63
2022-12-22T03:55:00.814Z,28.70
2022-12-22T03:57:27.519Z,27.27
2022-12-22T03:59:54.186Z,27.55
2022-12-22T04:02:20.897Z,29.25
2022-12-22T04:04:47.643Z,28.80
2022-12-22T04:07:14.315Z,29.60
2022-12-22T04:09:41.156Z,30.92
2022-12-22T04:12:08.903Z,32.70
2022-12-22T04:14:35.879Z,33.92
2022-12-22T04:17:07.078Z,33.20
2022-12-22T04:19:33.928Z,33.83
2022-12-22T04:22:00.954Z,33.90
2022-12-22T04:24:27.674Z,35.47
2022-12-22T04:26:54.689Z,36.42
2022-12-22T04:29:21.433Z,36.22
2022-12-22T04:31:48.215Z,36.10
2022-12-22T04:34:14.973Z,37.38
2022-12-22T04:36:41.661Z,37.42
2022-12-22T04:39:08.463Z,37.75
2022-12-22T04:41:35.096Z,39.17
2022-12-22T04:44:01.778Z,39.42
2022-12-22T04:46:28.608Z,37.10
2022-12-22T04:48:59.935Z,37.83
2022-12-22T04:51:27.864Z,42.45
2022-12-22T04:53:54.595Z,38.60
2022-12-22T04:56:21.269Z,37.25
2022-12-22T04:58:47.957Z,37.05
2022-12-22T05:01:17.753Z,39.40
2022-12-22T05:03:44.947Z,40.35
2022-12-22T05:06:12.308Z,38.53
2022-12-22T05:08:39.193Z,42.05
2022-12-22T05:11:06.520Z,39.65
2022-12-22T05:13:33.291Z,40.42
2022-12-22T05:16:12.199Z,39.92
2022-12-22T05:18:39.948Z,39.65
2022-12-22T05:21:12.045Z,41.33
2022-12-22T05:23:40.125Z,42.45
2022-12-22T05:26:07.439Z,40.45
2022-12-22T05:28:34.699Z,44.47
2022-12-22T05:31:15.129Z,45.00
2022-12-22T05:33:41.863Z,47.13
2022-12-22T05:36:08.885Z,45.15
2022-12-22T05:38:35.639Z,47.63
2022-12-22T05:41:04.662Z,48.60
2022-12-22T05:43:32.713Z,48.85
2022-12-22T05:46:04.926Z,47.15
2022-12-22T05:48:37.458Z,49.90
2022-12-22T05:51:05.495Z,48.72
2022-12-22T05:53:32.154Z,49.25
2022-12-22T05:55:58.843Z,51.00
2022-12-22T05:58:25.763Z,51.53
2022-12-22T06:00:55.638Z,52.65
2022-12-22T06:03:22.403Z,53.60
2022-12-22T06:05:52.898Z,54.75
2022-12-22T06:08:19.665Z,56.10
2022-12-22T06:10:46.553Z,54.33
2022-12-22T06:13:13.378Z,55.92
2022-12-22T06:15:40.155Z,54.78
2022-12-22T06:18:06.875Z,54.67
2022-12-22T06:20:33.721Z,55.00
2022-12-22T06:23:00.533Z,56.45
2022-12-22T06:25:27.381Z,53.63
2022-12-22T06:27:54.066Z,54.30
2022-12-22T06:30:20.735Z,55.25
2022-12-22T06:32:47.446Z,55.05
2022-12-22T06:35:14.637Z,55.40
2022-12-22T06:37:41.361Z,50.85
2022-12-22T06:40:09.210Z,52.38
2022-12-22T06:42:36.042Z,52.08
2022-12-22T06:45:02.958Z,51.60
2022-12-22T06:47:29.634Z,49.70
2022-12-22T06:49:56.304Z,50.10
2022-12-22T06:52:22.979Z,51.20
2022-12-22T06:54:49.611Z,47.72
2022-12-22T06:57:16.470Z,47.78
2022-12-22T06:59:43.150Z,48.22
2022-12-22T07:02:11.513Z,47.78
2022-12-22T07:04:38.374Z,47.85
2022-12-22T07:07:05.107Z,47.65
2022-12-22T07:09:31.790Z,46.17
2022-12-22T07:11:58.511Z,51.05
2022-12-22T07:14:25.220Z,48.13
2022-12-22T07:16:52.051Z,49.55
2022-12-22T07:19:18.816Z,45.78
2022-12-22T07:21:45.507Z,46.15
2022-12-22T07:24:12.267Z,48.97
2022-12-22T07:26:39.055Z,49.03
2022-12-22T07:29:05.910Z,47.40
2022-12-22T07:31:36.526Z,47.13
2022-12-22T07:34:03.309Z,46.75
2022-12-22T07:36:29.992Z,44.20
2022-12-22T07:38:56.664Z,44.95
2022-12-22T07:41:23.399Z,46.40
2022-12-22T07:43:50.041Z,43.67
2022-12-22T07:46:16.753Z,45.13
2022-12-22T07:48:43.539Z,43.13
2022-12-22T07:51:10.444Z,45.25
2022-12-22T07:53:39.699Z,43.13
2022-12-22T07:56:07.061Z,43.10
2022-12-22T07:58:33.900Z,43.17
2022-12-22T08:01:01.432Z,44.50
2022-12-22T08:03:28.678Z,43.60
2022-12-22T08:05:55.449Z,41.20
2022-12-22T08:08:22.211Z,39.78
2022-12-22T08:10:49.083Z,40.58
2022-12-22T08:13:16.028Z,40.10
2022-12-22T08:15:42.788Z,39.22
2022-12-22T08:18:09.614Z,38.45
2022-12-22T08:20:36.407Z,38.53
2022-12-22T08:23:03.115Z,37.70
2022-12-22T08:25:31.806Z,38.55
2022-12-22T08:27:59.030Z,37.13
2022-12-22T08:30:25.738Z,40.92
2022-12-22T08:32:52.557Z,39.90
2022-12-22T08:35:19.343Z,36.65
2022-12-22T08:37:47.189Z,38.75
2022-12-22T08:40:22.604Z,39.40
2022-12-22T08:42:53.290Z,37.33
2022-12-22T08:45:20.017Z,38.38
2022-12-22T08:47:46.771Z,37.80
2022-12-22T08:50:13.473Z,37.85
2022-12-22T08:52:40.378Z,39.08
2022-12-22T08:55:07.778Z,37.85
2022-12-22T08:57:34.500Z,37.42
2022-12-22T09:00:01.170Z,34.80
2022-12-22T09:02:27.988Z,37.95
2022-12-22T09:04:54.733Z,34.70
2022-12-22T09:07:21.447Z,33.60
2022-12-22T09:09:48.198Z,35.83
2022-12-22T09:12:14.858Z,35.67
2022-12-22T09:14:41.561Z,35.92
2022-12-22T09:17:08.311Z,39.65
2022-12-22T09:19:35.258Z,40.35
2022-12-22T09:22:02.002Z,41.55
2022-12-22T09:24:28.668Z,39.83
2022-12-22T09:26:55.393Z,40.42
2022-12-22T09:29:24.292Z,38.13
2022-12-22T09:31:51.102Z,37.22
2022-12-22T09:34:18.767Z,35.47
2022-12-22T09:36:46.153Z,34.10
2022-12-22T09:39:13.127Z,37.10
2022-12-22T09:41:49.657Z,40.63
2022-12-22T09:44:19.389Z,37.50
2022-12-22T09:46:46.264Z,37.38
2022-12-22T09:49:15.977Z,38.92
2022-12-22T09:51:47.527Z,36.38
2022-12-22T09:54:15.011Z,33.75
2022-12-22T09:56:42.086Z,34.50
2022-12-22T09:59:15.001Z,34.55
2022-12-22T10:02:03.041Z,36.55
2022-12-22T10:04:48.370Z,34.83
2022-12-22T10:07:33.293Z,36.50
2022-12-22T10:10:21.598Z,34.65
2022-12-22T10:12:49.716Z,36.05
2022-12-22T10:15:21.583Z,35.38
2022-12-22T10:17:51.888Z,36.33
2022-12-22T10:20:21.747Z,36.75
2022-12-22T10:22:59.780Z,37.60
2022-12-22T10:29:16.833Z,38.45
2022-12-22T10:32:01.143Z,33.33
2022-12-22T10:34:28.581Z,33.03
2022-12-22T10:37:01.042Z,31.45
2022-12-22T10:39:32.309Z,31.15
2022-12-22T10:42:10.835Z,28.90
2022-12-22T10:44:38.997Z,31.08
2022-12-22T10:47:22.588Z,35.00
2022-12-22T10:52:18.407Z,30.95
2022-12-22T10:54:47.517Z,32.53
2022-12-22T10:57:17.351Z,29.25
2022-12-22T11:00:23.957Z,28.60
2022-12-22T11:02:58.935Z,27.00
2022-12-22T11:05:26.452Z,26.15
2022-12-22T11:07:54.228Z,26.45
2022-12-22T11:10:47.579Z,27.83
2022-12-22T11:13:23.977Z,27.40
2022-12-22T11:16:08.896Z,25.98
2022-12-22T11:18:53.110Z,29.10
2022-12-22T11:21:25.648Z,27.33
2022-12-22T11:24:25.270Z,26.77
2022-12-22T11:27:25.574Z,26.48
2022-12-22T11:30:20.523Z,22.85
2022-12-22T11:32:56.092Z,22.27
2022-12-22T11:35:44.503Z,22.83
2022-12-22T11:38:40.563Z,22.92
2022-12-22T11:41:16.276Z,21.98
2022-12-22T11:46:12.565Z,22.77
2022-12-22T11:48:51.521Z,24.52
2022-12-22T11:51:40.978Z,25.17
2022-12-22T11:54:45.211Z,24.73
2022-12-22T11:57:24.350Z,24.40
2022-12-22T12:00:01.346Z,24.70
2022-12-22T12:02:34.197Z,25.67
2022-12-22T12:05:24.092Z,24.52
2022-12-22T12:08:14.989Z,23.20
2022-12-22T12:10:56.541Z,23.20
2022-12-22T12:13:41.646Z,24.45
2022-12-22T12:16:28.605Z,24.73
2022-12-22T12:19:21.666Z,26.38
2022-12-22T12:21:57.557Z,23.98
2022-12-22T12:24:58.617Z,23.75
2022-12-22T12:27:49.500Z,23.42
2022-12-22T12:33:23.915Z,25.65
2022-12-22T12:36:01.837Z,27.13
2022-12-22T12:39:08.768Z,26.27
2022-12-22T12:41:57.329Z,29.08
2022-12-22T12:44:28.836Z,28.85
2022-12-22T12:47:05.660Z,27.90
2022-12-22T12:49:56.288Z,26.88
2022-12-22T12:52:41.409Z,27.45
2022-12-22T12:55:31.660Z,28.17
2022-12-22T12:58:03.634Z,28.92
2022-12-22T13:00:33.415Z,30.02
2022-12-22T13:03:05.697Z,29.10
2022-12-22T13:05:53.672Z,28.42
2022-12-22T13:08:26.105Z,28.90
2022-12-22T13:10:55.630Z,28.38
2022-12-22T13:13:25.186Z,27.65
2022-12-22T13:16:01.233Z,30.35
2022-12-22T13:18:34.278Z,29.38
2022-12-22T13:27:25.339Z,25.52
2022-12-22T13:29:58.092Z,25.20
2022-12-22T13:30:51.205Z,26.20
2022-12-22T13:32:30.080Z,24.88
2022-12-22T13:37:58.444Z,26.60
2022-12-22T13:40:28.678Z,24.48
2022-12-22T13:43:14.539Z,27.42
2022-12-22T13:45:52.309Z,25.27
2022-12-22T13:48:21.193Z,26.55
2022-12-22T13:50:51.832Z,24.23
2022-12-22T13:56:41.096Z,23.27
2022-12-22T13:59:39.189Z,22.60
2022-12-22T14:02:09.009Z,21.35
2022-12-22T14:04:37.470Z,24.27
2022-12-22T14:07:18.572Z,23.88
2022-12-22T14:09:50.861Z,19.35
2022-12-22T14:12:24.176Z,22.38
2022-12-22T14:14:53.839Z,22.05
2022-12-22T14:17:38.258Z,21.80
2022-12-22T14:20:37.528Z,22.55
2022-12-22T14:23:17.632Z,22.40
2022-12-22T14:25:46.173Z,21.38
2022-12-22T14:28:30.260Z,21.35
2022-12-22T14:30:59.132Z,21.95
2022-12-22T14:33:25.792Z,21.40
2022-12-22T14:36:11.464Z,22.15
2022-12-22T14:38:40.629Z,22.42
2022-12-22T14:41:27.813Z,21.65
2022-12-22T14:43:54.539Z,22.33
2022-12-22T14:46:21.566Z,25.95
2022-12-22T14:48:48.375Z,23.48
2022-12-22T14:51:19.734Z,22.02
2022-12-22T14:53:49.555Z,20.30
2022-12-22T14:56:17.203Z,19.63
2022-12-22T14:58:46.238Z,21.17
2022-12-22T15:01:18.893Z,21.70
2022-12-22T15:04:16.025Z,19.60
2022-12-22T15:06:44.507Z,19.50
2022-12-22T15:09:14.326Z,21.10
2022-12-22T15:11:49.763Z,21.17
2022-12-22T15:14:22.862Z,20.33
2022-12-22T15:16:50.434Z,17.60
2022-12-22T15:19:19.812Z,18.33
2022-12-22T15:21:46.489Z,16.92
2022-12-22T15:24:15.361Z,16.25
2022-12-22T15:26:43.034Z,15.30
2022-12-22T15:29:10.016Z,15.02
2022-12-22T15:31:38.983Z,15.30
2022-12-22T15:34:23.150Z,15.45
2022-12-22T15:36:52.634Z,15.10
2022-12-22T15:39:21.002Z,16.40
2022-12-22T15:41:48.156Z,16.25
2022-12-22T15:44:16.775Z,16.77
2022-12-22T15:46:54.089Z,17.80
2022-12-22T15:49:24.413Z,17.70
2022-12-22T15:51:57.187Z,18.95
2022-12-22T15:54:26.851Z,18.55
2022-12-22T15:56:56.467Z,19.35
2022-12-22T15:59:25.813Z,18.67
2022-12-22T16:02:00.924Z,17.73
2022-12-22T16:04:28.883Z,17.75
2022-12-22T16:06:56.152Z,17.73
2022-12-22T16:09:31.052Z,18.15
2022-12-22T16:11:57.965Z,19.80
2022-12-22T16:14:24.964Z,18.30
2022-12-22T16:16:51.808Z,20.90
2022-12-22T16:19:23.004Z,19.77
2022-12-22T16:21:52.814Z,20.60
2022-12-22T16:24:29.165Z,21.98
2022-12-22T16:26:56.956Z,22.42
2022-12-22T16:29:24.909Z,25.02
2022-12-22T16:31:52.019Z,26.73
2022-12-22T16:34:19.068Z,25.00
2022-12-22T16:36:45.873Z,25.75
2022-12-22T16:39:12.586Z,26.15
2022-12-22T16:41:39.297Z,25.83
2022-12-22T16:44:08.310Z,27.10
2022-12-22T16:46:41.415Z,28.00
2022-12-22T16:49:24.511Z,29.45
2022-12-22T16:51:56.935Z,28.73
2022-12-22T16:54:23.675Z,31.83
2022-12-22T16:56:54.816Z,29.40
2022-12-22T16:59:21.683Z,31.27
2022-12-22T17:01:53.795Z,28.52
2022-12-22T17:04:37.042Z,30.30
2022-12-22T17:07:04.090Z,32.05
2022-12-22T17:09:42.324Z,31.20
2022-12-22T17:12:15.579Z,33.13
2022-12-22T17:14:45.526Z,33.38
2022-12-22T17:17:16.268Z,32.72
2022-12-22T17:19:53.110Z,33.72
2022-12-22T17:22:32.603Z,33.67
2022-12-22T17:25:03.001Z,34.10
2022-12-22T17:27:33.365Z,33.67
2022-12-22T17:30:03.078Z,34.28
2022-12-22T17:32:29.757Z,31.30
2022-12-22T17:34:58.693Z,33.40
2022-12-22T17:37:28.217Z,32.25
2022-12-22T17:40:00.667Z,31.13
2022-12-22T17:42:27.738Z,33.85
2022-12-22T17:44:56.307Z,34.80
2022-12-22T17:47:31.224Z,33.63
2022-12-22T17:49:59.195Z,33.28
2022-12-22T17:52:28.316Z,34.05
2022-12-22T17:54:55.007Z,33.88
2022-12-22T17:57:27.434Z,36.65
2022-12-22T17:59:56.820Z,34.38
2022-12-22T18:02:26.612Z,35.97
2022-12-22T18:04:53.744Z,36.55
2022-12-22T18:07:23.675Z,38.50
2022-12-22T18:09:56.268Z,35.40
2022-12-22T18:12:24.337Z,36.45
2022-12-22T18:14:51.886Z,33.83
2022-12-22T18:17:33.372Z,34.22
2022-12-22T18:20:02.153Z,34.95
2022-12-22T18:22:30.016Z,34.30
2022-12-22T18:24:57.342Z,32.50
2022-12-22T18:27:24.218Z,35.33
2022-12-22T18:29:50.976Z,35.50
2022-12-22T18:32:26.269Z,35.22
2022-12-22T18:34:54.532Z,33.03
2022-12-22T18:37:21.455Z,32.67
2022-12-22T18:39:48.302Z,33.13
2022-12-22T18:42:23.026Z,34.35
2022-12-22T18:44:50.976Z,34.90
2022-12-22T18:47:18.009Z,33.13
2022-12-22T18:49:45.184Z,34.67
2022-12-22T18:52:20.896Z,33.75
2022-12-22T18:57:19.196Z,31.02
2022-12-22T18:59:46.313Z,30.80
2022-12-22T19:02:13.091Z,30.98
2022-12-22T19:04:40.284Z,27.42
2022-12-22T19:07:15.127Z,28.23
2022-12-22T19:09:41.949Z,28.63
2022-12-22T19:12:13.759Z,29.58
2022-12-22T19:14:43.123Z,29.52
2022-12-22T19:17:22.022Z,27.95
2022-12-22T19:19:48.736Z,29.60
2022-12-22T19:22:16.167Z,29.23
2022-12-22T19:24:43.919Z,30.00
2022-12-22T19:27:19.557Z,33.30
2022-12-22T19:29:46.455Z,32.33
2022-12-22T19:32:31.275Z,32.45
2022-12-22T19:35:00.045Z,34.53
2022-12-22T19:37:32.420Z,34.58
2022-12-22T19:39:59.137Z,35.50
2022-12-22T19:42:26.690Z,43.70
2022-12-22T19:44:53.465Z,36.47
2022-12-22T19:47:24.358Z,36.17
2022-12-22T19:49:53.916Z,37.85
2022-12-22T19:52:20.718Z,38.40
2022-12-22T19:54:47.563Z,38.83
2022-12-22T19:57:20.305Z,39.55
2022-12-22T19:59:49.621Z,40.17
2022-12-22T20:02:32.482Z,40.70
2022-12-22T20:04:59.641Z,40.40
2022-12-22T20:07:30.887Z,42.10
2022-12-22T20:09:57.529Z,42.47
2022-12-22T20:12:34.789Z,42.78
2022-12-22T20:15:07.172Z,42.20
2022-12-22T20:17:33.862Z,42.78
2022-12-22T20:20:00.551Z,41.40
2022-12-22T20:22:27.595Z,42.20
2022-12-22T20:24:54.476Z,40.67
2022-12-22T20:27:29.775Z,40.20
2022-12-22T20:29:56.524Z,40.72
2022-12-22T20:32:28.146Z,42.30
2022-12-22T20:34:56.978Z,41.65
2022-12-22T20:37:26.594Z,42.55
2022-12-22T20:39:53.307Z,39.92
2022-12-22T20:42:23.715Z,40.95
2022-12-22T20:45:02.856Z,39.38
2022-12-22T20:47:32.805Z,41.03
2022-12-22T20:49:59.810Z,41.53
2022-12-22T20:52:26.555Z,40.72
2022-12-22T20:54:53.256Z,41.38
2022-12-22T20:57:22.478Z,42.83
2022-12-22T20:59:56.083Z,43.20
2022-12-22T21:02:29.093Z,41.55
2022-12-22T21:04:56.170Z,39.20
2022-12-22T21:07:23.286Z,40.33
2022-12-22T21:09:50.604Z,39.97
2022-12-22T21:12:17.480Z,40.55
2022-12-22T21:14:44.187Z,40.20
2022-12-22T21:17:17.993Z,40.60
2022-12-22T21:19:45.219Z,41.08
2022-12-22T21:22:11.963Z,42.22
2022-12-22T21:24:38.763Z,42.15
2022-12-22T21:27:05.717Z,41.20
2022-12-22T21:29:32.596Z,40.97
2022-12-22T21:31:59.467Z,42.83
2022-12-22T21:34:26.262Z,44.40
2022-12-22T21:36:59.619Z,43.63
2022-12-22T21:39:38.633Z,43.72
2022-12-22T21:42:05.911Z,42.90
2022-12-22T21:44:36.066Z,45.28
2022-12-22T21:47:05.180Z,46.17
2022-12-22T21:49:33.291Z,43.22
2022-12-22T21:52:00.594Z,41.72
2022-12-22T21:54:27.554Z,42.33
2022-12-22T21:56:54.714Z,42.58
2022-12-22T21:59:22.244Z,40.17
2022-12-22T22:01:49.404Z,41.45
2022-12-22T22:04:16.196Z,41.80
2022-12-22T22:06:42.931Z,41.05
2022-12-22T22:09:09.957Z,39.85
2022-12-22T22:11:36.697Z,40.33
2022-12-22T22:14:03.398Z,39.08
2022-12-22T22:16:30.126Z,37.47
2022-12-22T22:18:59.089Z,38.80
2022-12-22T22:21:27.833Z,38.78
2022-12-22T22:23:54.520Z,36.53
2022-12-22T22:26:23.885Z,36.80
2022-12-22T22:28:56.753Z,38.92
2022-12-22T22:31:23.512Z,37.92
2022-12-22T22:33:50.236Z,36.60
2022-12-22T22:36:16.917Z,35.92
2022-12-22T22:38:43.657Z,37.33
2022-12-22T22:41:10.323Z,35.58
2022-12-22T22:43:36.967Z,37.83
2022-12-22T22:46:03.786Z,32.83
2022-12-22T22:48:30.462Z,30.88
2022-12-22T22:50:57.111Z,29.13
2022-12-22T22:53:23.980Z,32.90
2022-12-22T22:55:50.654Z,36.60
2022-12-22T22:58:18.282Z,34.08
2022-12-22T23:00:44.976Z,33.88
2022-12-22T23:03:11.831Z,35.05
2022-12-22T23:05:38.619Z,35.33
2022-12-22T23:08:05.419Z,34.97
2022-12-22T23:10:37.771Z,34.97
2022-12-22T23:13:07.937Z,38.85
2022-12-22T23:15:34.623Z,36.17
2022-12-22T23:18:01.289Z,35.90
2022-12-22T23:20:27.950Z,37.35
2022-12-22T23:22:54.624Z,37.85
2022-12-22T23:25:21.302Z,35.22
2022-12-22T23:27:48.029Z,34.80
2022-12-22T23:30:14.863Z,34.53
2022-12-22T23:32:41.535Z,35.70
2022-12-22T23:35:08.622Z,35.03
2022-12-22T23:37:35.265Z,36.15
2022-12-22T23:40:33.285Z,37.25
2022-12-22T23:42:54.808Z,37.75
2022-12-22T23:45:23.319Z,34.63
2022-12-22T23:47:50.040Z,37.30
2022-12-22T23:50:16.748Z,35.03
2022-12-22T23:52:48.913Z,32.72
2022-12-22T23:55:16.255Z,32.50
2022-12-22T23:57:43.244Z,33.20
